createdAt,value
2023-02-27T00:01:29.264Z,7.85
2023-02-27T00:06:58.599Z,12.05
2023-02-27T00:12:24.368Z,8.82
2023-02-27T00:17:50.205Z,12.20
2023-02-27T00:23:15.815Z,9.65
2023-02-27T00:28:40.025Z,14.57
2023-02-27T00:34:10.368Z,14.35
2023-02-27T00:39:38.960Z,12.50
2023-02-27T00:45:09.323Z,9.87
2023-02-27T00:50:39.734Z,9.93
2023-02-27T00:56:03.107Z,8.82
2023-02-27T01:01:30.080Z,17.88
2023-02-27T01:06:58.375Z,22.48
2023-02-27T01:12:22.200Z,22.45
2023-02-27T01:17:51.556Z,28.17
2023-02-27T01:23:19.176Z,18.20
2023-02-27T01:28:48.354Z,16.30
2023-02-27T01:34:11.864Z,12.07
2023-02-27T01:39:43.611Z,11.00
2023-02-27T01:45:32.070Z,12.90
2023-02-27T01:51:00.057Z,14.20
2023-02-27T01:56:28.067Z,25.60
2023-02-27T02:01:58.624Z,34.35
2023-02-27T02:07:30.973Z,18.75
2023-02-27T02:12:56.496Z,12.80
2023-02-27T02:18:35.147Z,12.23
2023-02-27T02:24:29.560Z,11.68
2023-02-27T02:30:38.207Z,18.10
2023-02-27T02:36:56.273Z,21.40
2023-02-27T02:42:28.320Z,23.98
2023-02-27T02:48:04.769Z,20.23
2023-02-27T02:53:43.348Z,20.10
2023-02-27T02:59:18.514Z,18.33
2023-02-27T03:04:49.437Z,20.60
2023-02-27T03:10:20.514Z,23.33
2023-02-27T03:15:49.237Z,13.50
2023-02-27T03:21:23.800Z,9.07
2023-02-27T03:26:52.933Z,9.45
2023-02-27T03:32:30.227Z,8.75
2023-02-27T03:38:02.638Z,14.57
2023-02-27T03:43:32.620Z,10.20
2023-02-27T03:49:03.188Z,15.70
2023-02-27T03:54:37.775Z,26.30
2023-02-27T04:00:15.115Z,17.33
2023-02-27T04:05:40.262Z,11.88
2023-02-27T04:11:20.377Z,14.77
2023-02-27T04:17:03.648Z,12.15
2023-02-27T04:22:36.981Z,11.65
2023-02-27T04:28:12.254Z,13.15
2023-02-27T04:33:46.484Z,13.60
2023-02-27T04:39:24.267Z,13.35
2023-02-27T04:44:57.699Z,17.10
2023-02-27T04:50:31.088Z,12.35
2023-02-27T04:56:02.621Z,18.10
2023-02-27T05:01:31.993Z,17.25
2023-02-27T05:07:03.292Z,13.80
2023-02-27T05:12:39.892Z,16.33
2023-02-27T05:18:11.917Z,15.15
2023-02-27T05:23:47.860Z,19.40
2023-02-27T05:29:22.936Z,17.77
2023-02-27T05:34:51.993Z,16.25
2023-02-27T05:40:20.540Z,18.25
2023-02-27T05:45:49.410Z,20.07
2023-02-27T05:51:16.419Z,16.23
2023-02-27T05:56:42.712Z,18.58
2023-02-27T06:02:08.131Z,22.08
2023-02-27T06:07:33.207Z,19.30
2023-02-27T06:12:57.915Z,21.05
2023-02-27T06:18:28.484Z,19.92
2023-02-27T06:23:52.555Z,30.85
2023-02-27T06:29:17.528Z,37.67
2023-02-27T06:34:43.953Z,47.22
2023-02-27T06:40:11.589Z,43.17
2023-02-27T06:45:35.473Z,37.13
2023-02-27T06:51:00.712Z,28.80
2023-02-27T06:56:24.128Z,41.83
2023-02-27T07:01:48.380Z,39.53
2023-02-27T07:07:32.284Z,38.90
2023-02-27T07:12:55.525Z,35.65
2023-02-27T07:18:21.382Z,44.15
2023-02-27T07:23:51.774Z,45.35
2023-02-27T07:29:20.905Z,80.30
2023-02-27T07:34:47.937Z,42.88
2023-02-27T07:40:15.535Z,31.58
2023-02-27T07:45:44.118Z,40.22
2023-02-27T07:51:13.528Z,51.72
2023-02-27T07:56:44.270Z,72.95
2023-02-27T08:02:13.907Z,65.32
2023-02-27T08:07:38.107Z,89.93
2023-02-27T08:13:03.856Z,65.85
2023-02-27T08:18:34.938Z,50.72
2023-02-27T08:24:04.699Z,52.20
2023-02-27T08:29:31.039Z,64.53
2023-02-27T08:34:55.049Z,75.28
2023-02-27T08:40:18.812Z,62.50
2023-02-27T08:45:50.106Z,47.80
2023-02-27T08:51:15.759Z,46.25
2023-02-27T08:56:44.322Z,53.70
2023-02-27T09:02:14.634Z,51.00
2023-02-27T09:07:37.606Z,51.58
2023-02-27T09:13:06.592Z,62.57
2023-02-27T09:18:31.477Z,55.25
2023-02-27T09:24:10.124Z,67.60
2023-02-27T09:29:42.574Z,59.22
2023-02-27T09:35:11.022Z,54.42
2023-02-27T09:40:41.837Z,60.97
2023-02-27T09:46:16.892Z,55.72
2023-02-27T09:51:47.141Z,43.38
2023-02-27T09:57:20.682Z,48.95
2023-02-27T10:02:57.647Z,75.95
2023-02-27T10:08:35.673Z,49.95
2023-02-27T10:14:04.654Z,60.75
2023-02-27T10:19:38.395Z,41.80
2023-02-27T10:25:29.904Z,44.28
2023-02-27T10:30:58.663Z,43.15
2023-02-27T10:36:34.119Z,35.50
2023-02-27T10:42:06.806Z,51.58
2023-02-27T10:47:31.268Z,47.42
2023-02-27T10:52:58.475Z,54.22
2023-02-27T10:58:23.653Z,58.90
2023-02-27T11:03:57.404Z,50.33
2023-02-27T11:09:27.915Z,57.17
2023-02-27T11:15:01.310Z,55.97
2023-02-27T11:20:36.933Z,58.17
2023-02-27T11:26:12.211Z,41.80
2023-02-27T11:31:47.480Z,43.58
2023-02-27T11:37:25.161Z,47.42
2023-02-27T11:42:57.289Z,37.80
2023-02-27T11:48:30.091Z,39.72
2023-02-27T11:54:09.518Z,43.95
2023-02-27T11:59:44.232Z,47.42
2023-02-27T12:05:17.021Z,40.40
2023-02-27T12:10:50.778Z,42.45
2023-02-27T12:16:27.002Z,35.40
2023-02-27T12:21:59.327Z,41.10
2023-02-27T12:27:26.919Z,40.55
2023-02-27T12:33:03.331Z,34.90
2023-02-27T12:38:29.268Z,42.42
2023-02-27T12:44:03.007Z,40.70
2023-02-27T12:49:38.850Z,33.50
2023-02-27T12:55:16.706Z,39.85
2023-02-27T13:00:51.474Z,28.80
2023-02-27T13:06:28.124Z,25.17
2023-02-27T13:12:04.709Z,35.63
2023-02-27T13:17:36.077Z,36.00
2023-02-27T13:23:14.526Z,35.53
2023-02-27T13:28:46.160Z,24.70
2023-02-27T13:34:17.881Z,37.30
2023-02-27T13:39:53.764Z,27.85
2023-02-27T13:45:57.588Z,27.20
2023-02-27T13:51:47.101Z,33.97
2023-02-27T13:57:26.030Z,30.73
2023-02-27T14:03:00.585Z,36.65
2023-02-27T14:08:30.792Z,32.38
2023-02-27T14:14:08.390Z,39.90
2023-02-27T14:19:59.482Z,34.58
2023-02-27T14:25:34.638Z,34.50
2023-02-27T14:31:02.237Z,26.77
2023-02-27T14:36:29.151Z,29.88
2023-02-27T14:42:19.409Z,20.48
2023-02-27T14:47:48.679Z,23.83
2023-02-27T14:53:24.677Z,21.70
2023-02-27T14:59:03.675Z,22.38
2023-02-27T15:04:34.731Z,19.30
2023-02-27T15:10:38.517Z,16.48
2023-02-27T15:16:20.990Z,17.15
2023-02-27T15:21:45.293Z,14.15
2023-02-27T15:27:15.391Z,19.17
2023-02-27T15:32:43.030Z,17.15
2023-02-27T15:38:24.062Z,17.15
2023-02-27T15:43:54.569Z,17.10
2023-02-27T15:49:24.707Z,14.75
2023-02-27T15:54:54.329Z,8.63
2023-02-27T16:00:24.114Z,9.20
2023-02-27T16:05:53.546Z,8.77
2023-02-27T16:11:20.182Z,12.05
2023-02-27T16:16:57.042Z,12.15
2023-02-27T16:22:24.921Z,11.43
2023-02-27T16:27:53.596Z,8.35
2023-02-27T16:33:24.147Z,10.40
2023-02-27T16:38:50.657Z,9.23
2023-02-27T16:44:18.518Z,10.57
2023-02-27T16:49:44.455Z,9.27
2023-02-27T16:55:13.743Z,12.88
2023-02-27T17:00:42.680Z,11.03
2023-02-27T17:06:14.150Z,8.02
2023-02-27T17:11:42.248Z,9.32
2023-02-27T17:17:11.376Z,6.95
2023-02-27T17:22:38.458Z,8.60
2023-02-27T17:28:07.538Z,9.88
2023-02-27T17:33:31.804Z,9.15
2023-02-27T17:44:40.348Z,12.70
2023-02-27T17:50:04.141Z,8.02
2023-02-27T17:55:32.406Z,9.57
2023-02-27T18:01:06.506Z,13.23
2023-02-27T18:06:35.961Z,10.32
2023-02-27T18:11:59.462Z,9.45
2023-02-27T18:17:25.939Z,14.13
2023-02-27T18:22:49.469Z,13.05
2023-02-27T18:28:14.151Z,15.13
2023-02-27T18:33:38.659Z,15.73
2023-02-27T18:39:07.904Z,15.15
2023-02-27T18:44:31.293Z,13.10
2023-02-27T18:50:01.264Z,10.57
2023-02-27T18:55:29.536Z,8.70
2023-02-27T19:00:56.673Z,10.15
2023-02-27T19:06:27.074Z,10.90
2023-02-27T19:11:49.844Z,8.27
2023-02-27T19:17:13.258Z,9.27
2023-02-27T19:22:42.602Z,8.27
2023-02-27T19:28:12.302Z,10.13
2023-02-27T19:33:40.129Z,7.65
2023-02-27T19:39:05.992Z,7.38
2023-02-27T19:44:28.993Z,4.78
2023-02-27T19:49:52.334Z,7.05
2023-02-27T19:55:16.742Z,6.32
2023-02-27T20:00:45.548Z,8.68
2023-02-27T20:06:16.176Z,8.05
2023-02-27T20:17:04.743Z,5.28
2023-02-27T20:22:30.306Z,5.32
2023-02-27T20:27:55.463Z,4.47
2023-02-27T20:33:25.707Z,4.80
2023-02-27T20:38:52.681Z,4.28
2023-02-27T20:44:21.023Z,8.03
2023-02-27T20:49:51.121Z,4.27
2023-02-27T20:55:19.680Z,6.70
2023-02-27T21:00:43.720Z,6.10
2023-02-27T21:06:08.975Z,4.43
2023-02-27T21:11:32.979Z,8.23
2023-02-27T21:16:55.758Z,5.72
2023-02-27T21:22:19.929Z,10.90
2023-02-27T21:27:43.003Z,7.93
2023-02-27T21:33:06.451Z,7.13
2023-02-27T21:38:30.990Z,6.85
2023-02-27T21:43:57.970Z,6.15
2023-02-27T21:49:22.574Z,7.30
2023-02-27T21:54:47.143Z,7.82
2023-02-27T22:00:11.607Z,8.25
2023-02-27T22:05:34.419Z,6.78
2023-02-27T22:10:59.207Z,11.65
2023-02-27T22:16:22.447Z,9.18
2023-02-27T22:21:44.922Z,9.18
2023-02-27T22:27:09.343Z,13.20
2023-02-27T22:32:32.253Z,12.95
2023-02-27T22:37:55.111Z,12.18
2023-02-27T22:43:19.542Z,15.98
2023-02-27T22:48:43.319Z,15.13
2023-02-27T22:54:07.414Z,17.00
2023-02-27T22:59:31.300Z,20.10
2023-02-27T23:04:53.797Z,15.82
2023-02-27T23:10:16.673Z,18.38
2023-02-27T23:15:41.104Z,19.75
2023-02-27T23:21:04.957Z,17.38
2023-02-27T23:26:28.480Z,22.05
2023-02-27T23:31:53.838Z,19.70
2023-02-27T23:37:16.694Z,21.27
2023-02-27T23:42:40.298Z,18.65
2023-02-27T23:48:05.392Z,18.95
2023-02-27T23:53:30.131Z,18.58
2023-02-27T23:58:55.064Z,19.70
